• Join FlightAware (Why Join?)
  • Login
  • US Flag 
Rudolph Flight #1: Scheduled 
09:41PM EST


 

Airport Tracker/Info


-or-


 

Live Flight TrackerFlight Track Log ✈ ELJ188 ✈ 16-May-2013 ✈ KBED - KMKE

Flight Track Log - Related Links

Times and Time Zones

All times are in EDT time to prevent confusion due to time zone crossing. See the ELJ188 flight status page for this flight to view local times or setup timezone preferences in your user account.

Time Position Orientation Groundspeed Altitude Reporting Facility
EDT Latitude Longitude Course Direction KTS MPH feet Rate Location/Type
04:54PM 42.4667 -71.3167 270° West 161 185 1,500  Level KA90
04:55PM 42.4667 -71.3500 270° West 154 177 2,400 1,380 Climbing KA90
04:56PM 42.5167 -71.3667 346° North 194 223 3,600 1,320 Climbing KA90
04:57PM 42.5667 -71.3167 36° Northeast 222 255 5,000 1,680 Climbing KA90
04:58PM 42.6167 -71.3000 14° North 222 255 6,800 1,980 Climbing KA90
04:59PM 42.6675 -71.2908 North 238 274 8,900 2,220 Climbing Boston Center
05:00PM 42.7383 -71.2839 North 232 267 11,300 2,100 Climbing Boston Center
05:01PM 42.7681 -71.3286 312° West 174 200 13,200 1,800 Climbing Boston Center
05:02PM 42.7772 -71.4217 278° West 206 237 15,000 1,620 Climbing Boston Center
05:03PM 42.7886 -71.5233 279° West 261 300 16,500 2,040 Climbing Boston Center
05:04PM 42.8122 -71.6250 288° West 291 335 19,100 2,100 Climbing Boston Center
05:05PM 42.8503 -71.7181 299° West 285 328 20,800 1,500 Climbing Boston Center
05:06PM 42.8883 -71.8111 299° West 285 328 22,100 1,260 Climbing Boston Center
05:07PM 42.9286 -71.9042 301° West 279 321 23,400 1,020 Climbing Boston Center
05:08PM 42.9664 -71.9975 299° West 285 328 24,400 1,080 Climbing Boston Center
05:09PM 43.0064 -72.1192 294° West 285 328 25,800 1,320 Climbing Boston Center
05:10PM 43.0128 -72.2128 275° West 285 328 27,100 1,200 Climbing Boston Center
05:11PM 43.0278 -72.3292 280° West 280 322 28,200 1,080 Climbing Boston Center
05:12PM 43.0339 -72.4344 275° West 280 322 29,500 1,320 Climbing Boston Center
05:13PM 43.0486 -72.5594 279° West 280 322 31,200 1,500 Climbing Boston Center
05:14PM 43.0547 -72.6561 275° West 273 314 32,600 1,320 Climbing Boston Center
05:15PM 43.0606 -72.7583 275° West 273 314 33,900 1,080 Climbing Boston Center
05:16PM 43.0622 -72.8606 271° West 273 314 35,100 1,080 Climbing Boston Center
05:17PM 43.0681 -72.9858 274° West 273 314 36,400 1,080 Climbing Boston Center
05:18PM 43.0758 -73.0797 277° West 273 314 37,300 900 Climbing Boston Center
05:19PM 43.0794 -73.1847 273° West 273 314 38,300 840 Climbing Boston Center
05:21PM 43.0861 -73.3953 273° West 273 314 39,900 540 Climbing Boston Center
05:22PM 43.0894 -73.5061 272° West 278 320 40,000  Climbing Boston Center
05:23PM 43.0944 -73.6286 273° West 301 346 40,000  Level Boston Center
05:24PM 43.0972 -73.7481 272° West 317 365 40,000  Level Boston Center
05:25PM 43.1003 -73.8506 272° West 329 379 40,000  Level Boston Center
05:26PM 43.1086 -74.0072 274° West 335 386 40,000  Level Boston Center
05:27PM 43.1111 -74.1353 272° West 340 391 40,000  Level Boston Center
05:28PM 43.1153 -74.2633 273° West 345 397 40,000  Level Boston Center
05:29PM 43.1214 -74.3886 274° West 345 397 40,000  Level Boston Center
05:30PM 43.1236 -74.5139 271° West 345 397 40,000  Level Boston Center
05:31PM 43.1275 -74.6364 273° West 339 390 40,000  Level Boston Center
05:32PM 43.1311 -74.7617 272° West 339 390 40,000  Level Boston Center
05:33PM 43.1328 -74.8897 271° West 334 384 40,000  Level Boston Center
05:34PM 43.1383 -75.0181 273° West 334 384 40,000  Level Boston Center
05:35PM 43.1394 -75.1461 271° West 334 384 40,000  Level Boston Center
05:36PM 43.1422 -75.2858 272° West 334 384 40,000  Level Boston Center
05:37PM 43.1453 -75.4111 272° West 334 384 40,000  Level Boston Center
05:38PM 43.1481 -75.5394 272° West 334 384 40,000  Level Boston Center
05:39PM 43.1531 -75.6619 273° West 334 384 40,000  Level Boston Center
05:40PM 43.1536 -75.7903 270° West 334 384 40,000  Level Boston Center
05:42PM 43.1581 -76.0717 271° West 331 381 40,000  Level Cleveland Center
05:43PM 43.1608 -76.1967 272° West 331 381 40,000  Level Cleveland Center
05:44PM 43.1508 -76.3256 264° West 331 381 40,000  Level Cleveland Center
05:45PM 43.1389 -76.4517 263° West 331 381 40,000  Level Cleveland Center
05:46PM 43.1286 -76.5775 264° West 331 381 40,000  Level Cleveland Center
05:47PM 43.1217 -76.6775 265° West 331 381 40,000  Level Cleveland Center
05:48PM 43.1075 -76.8150 262° West 331 381 40,000  Level Cleveland Center
05:49PM 43.0947 -76.9408 262° West 331 381 40,000  Level Cleveland Center
05:50PM 43.0842 -77.0667 263° West 331 381 40,000  Level Cleveland Center
05:51PM 43.0753 -77.1894 264° West 331 381 40,000  Level Cleveland Center
05:52PM 43.0622 -77.3153 262° West 331 381 40,000  Level Cleveland Center
05:53PM 43.0511 -77.4381 263° West 331 381 40,000  Level Cleveland Center
05:54PM 43.0397 -77.5608 263° West 331 381 40,000  Level Cleveland Center
05:55PM 43.0283 -77.6861 263° West 331 381 40,000  Level Cleveland Center
05:56PM 43.0125 -77.8092 260° West 331 381 40,000  Level Cleveland Center
05:57PM 43.0031 -77.9344 264° West 331 381 40,000  Level Cleveland Center
05:58PM 42.9892 -78.0600 261° West 331 381 40,000  Level Cleveland Center
05:59PM 42.9772 -78.1853 263° West 337 388 40,000  Level Cleveland Center
06:00PM 42.9653 -78.3106 263° West 337 388 40,000  Level Cleveland Center
06:01PM 42.9508 -78.4389 261° West 337 388 40,000  Level Cleveland Center
06:02PM 42.9386 -78.5639 262° West 337 388 40,000  Level Cleveland Center
06:03PM 42.9303 -78.6889 265° West 337 388 40,000  Level Cleveland Center
06:04PM 42.9386 -78.8164 275° West 331 381 40,000  Level Cleveland Center
06:05PM 42.9467 -78.9467 275° West 331 381 40,000  Level Cleveland Center
06:06PM 42.9525 -79.0714 274° West 331 381 40,000  Level Cleveland Center
06:07PM 42.9606 -79.1989 275° West 331 381 40,000  Level Cleveland Center
06:08PM 42.9661 -79.3319 273° West 336 387 40,000  Level Cleveland Center
06:10PM 42.9667 -79.4667 270° West 340 391 40,000  Level Toronto Center
06:11PM 42.9667 -79.5833 270° West 340 391 40,000  Level Toronto Center
06:12PM 42.9667 -79.7167 270° West 340 391 40,000  Level Toronto Center
06:13PM 42.9833 -79.8667 279° West 340 391 40,000  Level Toronto Center
06:14PM 42.9833 -79.9667 270° West 340 391 40,000  Level Toronto Center
06:15PM 42.9833 -80.1167 270° West 340 391 40,000  Level Toronto Center
06:16PM 43.0000 -80.2333 281° West 340 391 40,000  Level Toronto Center
06:18PM 43.0000 -80.5000 270° West 340 391 40,000  Level Toronto Center
06:19PM 43.0167 -80.6333 280° West 340 391 40,000  Level Toronto Center
06:20PM 43.0167 -80.7500 270° West 340 391 40,000  Level Toronto Center
06:21PM 43.0167 -80.8833 270° West 340 391 40,000  Level Toronto Center
06:22PM 43.0167 -81.0000 270° West 330 380 40,000  Level Toronto Center
06:23PM 43.0167 -81.1333 270° West 330 380 40,000  Level Toronto Center
06:24PM 43.0333 -81.2500 281° West 330 380 40,000  Level Toronto Center
06:25PM 43.0667 -81.3667 291° West 330 380 40,000  Level Toronto Center
06:26PM 43.0833 -81.5000 280° West 330 380 40,000  Level Toronto Center
06:27PM 43.1000 -81.6500 279° West 330 380 40,000  Level Toronto Center
06:28PM 43.1167 -81.7500 283° West 330 380 40,000  Level Toronto Center
06:29PM 43.1333 -81.9000 279° West 330 380 40,000  Level Toronto Center
06:30PM 43.1500 -82.0167 281° West 340 391 40,000  Level Toronto Center
06:31PM 43.1667 -82.1167 283° West 340 391 40,000  Level Toronto Center
06:32PM 43.1833 -82.2667 279° West 340 391 40,000  Level Toronto Center
06:33PM 43.2000 -82.3833 281° West 340 391 40,000  Level Toronto Center
06:34PM 43.2167 -82.5167 280° West 340 391 40,000  Level Toronto Center
06:35PM 43.2500 -82.6333 291° West 340 391 40,000  Level Toronto Center
06:35PM 43.2553 -82.7267 274° West 335 386 40,000  Level Cleveland Center
06:36PM 43.2547 -82.8522 270° West 335 386 40,000  Level Cleveland Center
06:37PM 43.2503 -82.9803 267° West 335 386 40,000  Level Cleveland Center
06:38PM 43.2494 -83.1114 270° West 335 386 40,000  Level Cleveland Center
06:39PM 43.2486 -83.2453 270° West 340 391 40,000  Level Cleveland Center
06:40PM 43.2456 -83.3764 268° West 345 397 40,000  Level Cleveland Center
06:41PM 43.2422 -83.5044 268° West 345 397 40,000  Level Cleveland Center
06:42PM 43.2389 -83.6383 268° West 345 397 40,000  Level Cleveland Center
06:43PM 43.2372 -83.7722 269° West 345 397 40,000  Level Cleveland Center
06:44PM 43.2358 -83.9031 269° West 345 397 40,000  Level Cleveland Center
06:45PM 43.2314 -84.0456 268° West 345 397 40,000  Level Cleveland Center
06:46PM 43.2275 -84.1792 268° West 345 397 40,000  Level Cleveland Center
06:47PM 43.2253 -84.3100 269° West 350 403 40,000  Level Cleveland Center
06:49PM 43.2225 -84.5139 269° West 349 402 40,000  Level Chicago Center
06:50PM 43.2000 -84.6167 253° West 350 403 40,000  Level Toronto Center
06:51PM 43.2000 -84.7333 270° West 350 403 40,000  Level Toronto Center
06:52PM 43.2000 -84.8667 270° West 340 391 40,000  Level Toronto Center
06:52PM 43.2100 -84.9025 291° West 342 394 40,000  Level Chicago Center
06:53PM 43.2064 -85.0300 268° West 338 389 40,000 -240 Level Chicago Center
06:54PM 43.2014 -85.1600 267° West 340 391 39,600 -960 Descending Chicago Center
06:55PM 43.1956 -85.3158 267° West 343 395 38,000 -1,440 Descending Chicago Center
06:56PM 43.1914 -85.4469 268° West 346 398 36,600 -1,440 Descending Chicago Center
06:57PM 43.1875 -85.5811 268° West 354 407 35,100 -1,440 Descending Chicago Center
06:58PM 43.1822 -85.7147 267° West 354 407 33,700 -1,680 Descending Chicago Center
06:59PM 43.1775 -85.8481 267° West 355 409 31,700 -2,220 Descending Chicago Center
07:00PM 43.1717 -86.0139 267° West 371 427 29,200 -2,280 Descending Chicago Center
07:01PM 43.1689 -86.1592 269° West 387 445 27,000 -2,220 Descending Chicago Center
07:02PM 43.1653 -86.3042 268° West 386 444 24,700 -2,220 Descending Chicago Center
07:03PM 43.1631 -86.4528 269° West 392 451 22,500 -2,460 Descending Chicago Center
07:04PM 43.1594 -86.6283 268° West 385 443 19,700 -2,520 Descending Chicago Center
07:05PM 43.1575 -86.7656 269° West 365 420 17,300 -2,220 Descending Chicago Center
07:06PM 43.1547 -86.8972 268° West 350 403 15,200 -1,620 Descending Chicago Center
07:07PM 43.1517 -87.0242 268° West 336 387 14,000 -600 Descending Chicago Center
07:08PM 43.1492 -87.1506 268° West 334 384 14,000 -360 Level Chicago Center
07:09PM 43.1444 -87.2994 268° West 326 375 13,300 -960 Descending Chicago Center
07:11PM 43.1339 -87.4061 262° West 304 350 12,000 -1,380 Descending Chicago Center
07:12PM 43.1114 -87.5178 255° West 301 346 10,500 -1,560 Descending Chicago Center
07:13PM 43.0881 -87.6372 255° West 278 320 8,800 -1,500 Descending Chicago Center
07:14PM 43.0725 -87.7347 258° West 264 304 7,400 -900 Descending Chicago Center
07:15PM 43.0558 -87.8319 257° West 261 300 7,000 -240 Descending Chicago Center
07:16PM 43.0392 -87.9325 257° West 268 308 7,000  Level Chicago Center
07:16PM 43.0333 -87.9667 257° West 275 316 7,000 -840 Level KMKE
07:17PM 43.0167 -88.0500 255° West 265 305 6,100 -1,200 Descending KMKE
07:18PM 43.0167 -88.1333 270° West 260 299 5,000 -1,500 Descending KMKE
07:19PM 42.9500 -88.1500 190° South 254 292 3,300 -1,080 Descending KMKE
07:20PM 42.9069 -88.0825 131° Southeast 221 254 2,700 -480 Descending Chicago Center
07:21PM 42.9119 -88.0267 83° East 172 198 2,300 -480 Descending Chicago Center
07:22PM 42.9236 -87.9811 71° East 147 169 1,700 -660 Descending Chicago Center
07:23PM 42.9333 -87.9500 67° East 111 128 1,100 -720 Descending KMKE
07:25PM 42.9469 -87.8971 76° East  Level Estimated